sensor_id;sensor_type;location;lat;lon;timestamp;temperature;humidity
53053;DHT22;38934;52.690;6.184;2024-01-16T00:01:45;0.00;99.90
53053;DHT22;38934;52.690;6.184;2024-01-16T00:04:11;0.00;99.90
53053;DHT22;38934;52.690;6.184;2024-01-16T00:06:40;0.10;99.90
53053;DHT22;38934;52.690;6.184;2024-01-16T00:09:06;0.10;99.90
53053;DHT22;38934;52.690;6.184;2024-01-16T00:11:32;0.10;99.90
53053;DHT22;38934;52.690;6.184;2024-01-16T00:13:58;0.10;99.90
53053;DHT22;38934;52.690;6.184;2024-01-16T00:16:23;0.10;99.90
53053;DHT22;38934;52.690;6.184;2024-01-16T00:18:49;0.10;99.90
53053;DHT22;38934;52.690;6.184;2024-01-16T00:21:15;0.10;99.90
53053;DHT22;38934;52.690;6.184;2024-01-16T00:23:40;0.00;99.90
53053;DHT22;38934;52.690;6.184;2024-01-16T00:26:06;-0.10;99.90
53053;DHT22;38934;52.690;6.184;2024-01-16T00:28:32;-0.20;99.90
53053;DHT22;38934;52.690;6.184;2024-01-16T00:30:58;-0.20;99.90
53053;DHT22;38934;52.690;6.184;2024-01-16T00:33:23;-0.30;99.90
53053;DHT22;38934;52.690;6.184;2024-01-16T00:35:49;-0.30;99.90
53053;DHT22;38934;52.690;6.184;2024-01-16T00:38:15;-0.40;99.90
53053;DHT22;38934;52.690;6.184;2024-01-16T00:40:41;-0.40;99.90
53053;DHT22;38934;52.690;6.184;2024-01-16T00:43:06;-0.40;99.90
53053;DHT22;38934;52.690;6.184;2024-01-16T00:45:32;-0.50;99.90
53053;DHT22;38934;52.690;6.184;2024-01-16T00:47:58;-0.50;99.90
53053;DHT22;38934;52.690;6.184;2024-01-16T00:50:24;-0.50;99.90
53053;DHT22;38934;52.690;6.184;2024-01-16T00:52:50;-0.50;99.90
53053;DHT22;38934;52.690;6.184;2024-01-16T00:55:15;-0.50;99.90
53053;DHT22;38934;52.690;6.184;2024-01-16T00:57:41;-0.50;99.90
53053;DHT22;38934;52.690;6.184;2024-01-16T01:00:07;-0.50;99.90
53053;DHT22;38934;52.690;6.184;2024-01-16T01:02:35;-0.50;99.90
53053;DHT22;38934;52.690;6.184;2024-01-16T01:05:00;-0.60;99.90
53053;DHT22;38934;52.690;6.184;2024-01-16T01:07:26;-0.60;99.90
53053;DHT22;38934;52.690;6.184;2024-01-16T01:09:52;-0.60;99.90
53053;DHT22;38934;52.690;6.184;2024-01-16T01:12:18;-0.60;99.90
53053;DHT22;38934;52.690;6.184;2024-01-16T01:14:43;-0.70;99.90
53053;DHT22;38934;52.690;6.184;2024-01-16T01:17:09;-0.70;99.90
53053;DHT22;38934;52.690;6.184;2024-01-16T01:19:35;0.30;99.90
53053;DHT22;38934;52.690;6.184;2024-01-16T01:22:00;-0.80;99.90
53053;DHT22;38934;52.690;6.184;2024-01-16T01:24:26;-0.80;99.90
53053;DHT22;38934;52.690;6.184;2024-01-16T01:26:52;-0.80;99.90
53053;DHT22;38934;52.690;6.184;2024-01-16T01:29:17;-0.90;99.90
53053;DHT22;38934;52.690;6.184;2024-01-16T01:31:46;-0.90;99.90
53053;DHT22;38934;52.690;6.184;2024-01-16T01:34:13;-0.90;99.90
53053;DHT22;38934;52.690;6.184;2024-01-16T01:36:39;-0.90;99.90
53053;DHT22;38934;52.690;6.184;2024-01-16T01:39:04;-1.00;99.90
53053;DHT22;38934;52.690;6.184;2024-01-16T01:41:31;-1.00;99.90
53053;DHT22;38934;52.690;6.184;2024-01-16T01:43:56;-1.00;99.90
53053;DHT22;38934;52.690;6.184;2024-01-16T01:46:22;-1.00;99.90
53053;DHT22;38934;52.690;6.184;2024-01-16T01:48:48;-1.00;99.90
53053;DHT22;38934;52.690;6.184;2024-01-16T01:51:17;-1.00;99.90
53053;DHT22;38934;52.690;6.184;2024-01-16T01:53:44;-1.00;99.90
53053;DHT22;38934;52.690;6.184;2024-01-16T01:56:14;-1.00;99.90
53053;DHT22;38934;52.690;6.184;2024-01-16T01:58:43;-1.00;99.90
53053;DHT22;38934;52.690;6.184;2024-01-16T02:01:09;-1.00;99.90
53053;DHT22;38934;52.690;6.184;2024-01-16T02:03:40;-1.00;99.90
53053;DHT22;38934;52.690;6.184;2024-01-16T02:06:07;-1.00;99.90
53053;DHT22;38934;52.690;6.184;2024-01-16T02:08:33;-1.00;99.90
53053;DHT22;38934;52.690;6.184;2024-01-16T02:10:58;-0.90;99.90
53053;DHT22;38934;52.690;6.184;2024-01-16T02:13:24;-0.90;99.90
53053;DHT22;38934;52.690;6.184;2024-01-16T02:15:50;-1.00;99.90
53053;DHT22;38934;52.690;6.184;2024-01-16T02:18:17;-0.90;99.90
53053;DHT22;38934;52.690;6.184;2024-01-16T02:20:43;-0.90;99.90
53053;DHT22;38934;52.690;6.184;2024-01-16T02:23:10;-0.90;99.90
53053;DHT22;38934;52.690;6.184;2024-01-16T02:25:38;-0.90;99.90
53053;DHT22;38934;52.690;6.184;2024-01-16T02:28:04;-1.00;99.90
53053;DHT22;38934;52.690;6.184;2024-01-16T02:30:29;-0.90;99.90
53053;DHT22;38934;52.690;6.184;2024-01-16T02:32:56;-1.00;99.90
53053;DHT22;38934;52.690;6.184;2024-01-16T02:35:21;-1.00;99.90
53053;DHT22;38934;52.690;6.184;2024-01-16T02:37:47;-1.00;99.90
53053;DHT22;38934;52.690;6.184;2024-01-16T02:40:12;-1.00;99.90
53053;DHT22;38934;52.690;6.184;2024-01-16T02:42:39;-0.90;99.90
53053;DHT22;38934;52.690;6.184;2024-01-16T02:45:05;-0.90;99.90
53053;DHT22;38934;52.690;6.184;2024-01-16T02:47:31;-0.90;99.90
53053;DHT22;38934;52.690;6.184;2024-01-16T02:49:58;-0.90;99.90
53053;DHT22;38934;52.690;6.184;2024-01-16T02:52:23;-0.90;99.90
53053;DHT22;38934;52.690;6.184;2024-01-16T02:54:49;-0.90;99.90
53053;DHT22;38934;52.690;6.184;2024-01-16T02:57:16;-0.90;99.90
53053;DHT22;38934;52.690;6.184;2024-01-16T02:59:45;-0.90;99.90
53053;DHT22;38934;52.690;6.184;2024-01-16T03:02:11;-0.80;99.90
53053;DHT22;38934;52.690;6.184;2024-01-16T03:04:37;-0.90;99.90
53053;DHT22;38934;52.690;6.184;2024-01-16T03:07:03;-0.90;99.90
53053;DHT22;38934;52.690;6.184;2024-01-16T03:09:29;-0.90;99.90
53053;DHT22;38934;52.690;6.184;2024-01-16T03:11:55;-0.90;99.90
53053;DHT22;38934;52.690;6.184;2024-01-16T03:14:20;-0.90;99.90
53053;DHT22;38934;52.690;6.184;2024-01-16T03:16:46;-1.00;99.90
53053;DHT22;38934;52.690;6.184;2024-01-16T03:19:12;-1.00;99.90
53053;DHT22;38934;52.690;6.184;2024-01-16T03:21:38;-1.00;99.90
53053;DHT22;38934;52.690;6.184;2024-01-16T03:24:05;-1.00;99.90
53053;DHT22;38934;52.690;6.184;2024-01-16T03:26:32;-1.00;99.90
53053;DHT22;38934;52.690;6.184;2024-01-16T03:28:58;-0.80;99.90
53053;DHT22;38934;52.690;6.184;2024-01-16T03:31:24;-1.00;99.90
53053;DHT22;38934;52.690;6.184;2024-01-16T03:33:49;-1.10;99.90
53053;DHT22;38934;52.690;6.184;2024-01-16T03:36:15;-1.00;99.90
53053;DHT22;38934;52.690;6.184;2024-01-16T03:38:44;-1.00;99.90
53053;DHT22;38934;52.690;6.184;2024-01-16T03:41:13;-1.00;99.90
53053;DHT22;38934;52.690;6.184;2024-01-16T03:43:39;-1.00;99.90
53053;DHT22;38934;52.690;6.184;2024-01-16T03:46:05;-1.00;99.90
53053;DHT22;38934;52.690;6.184;2024-01-16T03:48:31;-1.00;99.90
53053;DHT22;38934;52.690;6.184;2024-01-16T03:50:57;-1.00;99.90
53053;DHT22;38934;52.690;6.184;2024-01-16T03:53:23;-1.00;99.90
53053;DHT22;38934;52.690;6.184;2024-01-16T03:55:49;-1.00;99.90
53053;DHT22;38934;52.690;6.184;2024-01-16T03:58:15;-1.00;99.90
53053;DHT22;38934;52.690;6.184;2024-01-16T04:00:41;-1.00;99.90
53053;DHT22;38934;52.690;6.184;2024-01-16T04:03:07;-1.00;99.90
53053;DHT22;38934;52.690;6.184;2024-01-16T04:05:33;-1.00;99.90
53053;DHT22;38934;52.690;6.184;2024-01-16T04:07:59;-1.00;99.90
53053;DHT22;38934;52.690;6.184;2024-01-16T04:10:24;-1.00;99.90
53053;DHT22;38934;52.690;6.184;2024-01-16T04:12:50;-1.00;99.90
53053;DHT22;38934;52.690;6.184;2024-01-16T04:15:15;-1.00;99.90
53053;DHT22;38934;52.690;6.184;2024-01-16T04:17:41;-1.00;99.90
53053;DHT22;38934;52.690;6.184;2024-01-16T04:20:07;-1.00;99.90
53053;DHT22;38934;52.690;6.184;2024-01-16T04:22:33;-1.00;99.90
53053;DHT22;38934;52.690;6.184;2024-01-16T04:24:59;-1.00;99.90
53053;DHT22;38934;52.690;6.184;2024-01-16T04:27:24;-1.00;99.90
53053;DHT22;38934;52.690;6.184;2024-01-16T04:29:51;-0.90;99.90
53053;DHT22;38934;52.690;6.184;2024-01-16T04:32:17;-0.90;99.90
53053;DHT22;38934;52.690;6.184;2024-01-16T04:34:42;-0.80;99.90
53053;DHT22;38934;52.690;6.184;2024-01-16T04:37:08;-0.70;99.90
53053;DHT22;38934;52.690;6.184;2024-01-16T04:39:34;-0.70;99.90
53053;DHT22;38934;52.690;6.184;2024-01-16T04:42:00;-0.60;99.90
53053;DHT22;38934;52.690;6.184;2024-01-16T04:44:25;-0.60;99.90
53053;DHT22;38934;52.690;6.184;2024-01-16T04:46:51;-0.60;99.90
53053;DHT22;38934;52.690;6.184;2024-01-16T04:49:16;-0.60;99.90
53053;DHT22;38934;52.690;6.184;2024-01-16T04:51:43;-0.50;99.90
53053;DHT22;38934;52.690;6.184;2024-01-16T04:54:10;-0.50;99.90
53053;DHT22;38934;52.690;6.184;2024-01-16T04:56:36;-0.50;99.90
53053;DHT22;38934;52.690;6.184;2024-01-16T04:59:02;-0.50;99.90
53053;DHT22;38934;52.690;6.184;2024-01-16T05:01:29;-0.60;99.90
53053;DHT22;38934;52.690;6.184;2024-01-16T05:03:55;0.70;99.90
53053;DHT22;38934;52.690;6.184;2024-01-16T05:06:21;-0.50;99.90
53053;DHT22;38934;52.690;6.184;2024-01-16T05:08:47;-0.50;99.90
53053;DHT22;38934;52.690;6.184;2024-01-16T05:11:13;-0.60;99.90
53053;DHT22;38934;52.690;6.184;2024-01-16T05:13:38;-0.60;99.90
53053;DHT22;38934;52.690;6.184;2024-01-16T05:16:05;-0.60;99.90
53053;DHT22;38934;52.690;6.184;2024-01-16T05:18:31;-0.60;99.90
53053;DHT22;38934;52.690;6.184;2024-01-16T05:20:58;-0.70;99.90
53053;DHT22;38934;52.690;6.184;2024-01-16T05:23:24;-0.70;99.90
53053;DHT22;38934;52.690;6.184;2024-01-16T05:25:49;-0.70;99.90
53053;DHT22;38934;52.690;6.184;2024-01-16T05:28:15;-0.70;99.90
53053;DHT22;38934;52.690;6.184;2024-01-16T05:30:41;-0.70;99.90
53053;DHT22;38934;52.690;6.184;2024-01-16T05:33:07;-0.70;99.90
53053;DHT22;38934;52.690;6.184;2024-01-16T05:35:33;-0.70;99.90
53053;DHT22;38934;52.690;6.184;2024-01-16T05:37:58;-0.70;99.90
53053;DHT22;38934;52.690;6.184;2024-01-16T05:40:25;-0.70;99.90
53053;DHT22;38934;52.690;6.184;2024-01-16T05:42:51;-0.70;99.90
53053;DHT22;38934;52.690;6.184;2024-01-16T05:45:17;-0.60;99.90
53053;DHT22;38934;52.690;6.184;2024-01-16T05:47:43;-0.70;99.90
53053;DHT22;38934;52.690;6.184;2024-01-16T05:50:09;-0.70;99.90
53053;DHT22;38934;52.690;6.184;2024-01-16T05:52:35;-0.70;99.90
53053;DHT22;38934;52.690;6.184;2024-01-16T05:55:01;0.70;99.90
53053;DHT22;38934;52.690;6.184;2024-01-16T05:57:28;-0.70;99.90
53053;DHT22;38934;52.690;6.184;2024-01-16T05:59:54;-0.70;99.90
53053;DHT22;38934;52.690;6.184;2024-01-16T06:02:21;-0.70;99.90
53053;DHT22;38934;52.690;6.184;2024-01-16T06:04:46;-0.70;99.90
53053;DHT22;38934;52.690;6.184;2024-01-16T06:07:12;-0.70;99.90
53053;DHT22;38934;52.690;6.184;2024-01-16T06:09:41;-0.70;99.90
53053;DHT22;38934;52.690;6.184;2024-01-16T06:12:07;-0.70;99.90
53053;DHT22;38934;52.690;6.184;2024-01-16T06:14:34;-0.60;99.90
53053;DHT22;38934;52.690;6.184;2024-01-16T06:17:00;-0.70;99.90
53053;DHT22;38934;52.690;6.184;2024-01-16T06:19:26;-0.70;99.90
53053;DHT22;38934;52.690;6.184;2024-01-16T06:21:51;-0.60;99.90
53053;DHT22;38934;52.690;6.184;2024-01-16T06:24:17;-0.60;99.90
53053;DHT22;38934;52.690;6.184;2024-01-16T06:26:43;-0.70;99.90
53053;DHT22;38934;52.690;6.184;2024-01-16T06:29:08;0.00;99.90
53053;DHT22;38934;52.690;6.184;2024-01-16T06:31:34;-0.60;99.90
53053;DHT22;38934;52.690;6.184;2024-01-16T06:34:01;-0.60;99.90
53053;DHT22;38934;52.690;6.184;2024-01-16T06:36:26;-0.70;99.90
53053;DHT22;38934;52.690;6.184;2024-01-16T06:38:52;-0.60;99.90
53053;DHT22;38934;52.690;6.184;2024-01-16T06:41:18;-0.60;99.90
53053;DHT22;38934;52.690;6.184;2024-01-16T06:43:43;-0.60;99.90
53053;DHT22;38934;52.690;6.184;2024-01-16T06:46:09;-0.60;99.90
53053;DHT22;38934;52.690;6.184;2024-01-16T06:48:36;-0.60;99.90
53053;DHT22;38934;52.690;6.184;2024-01-16T06:51:05;-0.40;99.90
53053;DHT22;38934;52.690;6.184;2024-01-16T06:53:31;-0.60;99.90
53053;DHT22;38934;52.690;6.184;2024-01-16T06:55:57;-0.50;99.90
53053;DHT22;38934;52.690;6.184;2024-01-16T06:58:23;-0.60;99.90
53053;DHT22;38934;52.690;6.184;2024-01-16T07:00:48;-0.60;99.90
53053;DHT22;38934;52.690;6.184;2024-01-16T07:03:14;-0.60;99.90
53053;DHT22;38934;52.690;6.184;2024-01-16T07:05:40;-0.60;99.90
53053;DHT22;38934;52.690;6.184;2024-01-16T07:08:09;0.10;99.90
53053;DHT22;38934;52.690;6.184;2024-01-16T07:10:35;-0.60;99.90
53053;DHT22;38934;52.690;6.184;2024-01-16T07:13:01;-0.60;99.90
53053;DHT22;38934;52.690;6.184;2024-01-16T07:15:28;-0.60;99.90
53053;DHT22;38934;52.690;6.184;2024-01-16T07:17:53;-0.60;99.90
53053;DHT22;38934;52.690;6.184;2024-01-16T07:20:19;-0.30;99.90
53053;DHT22;38934;52.690;6.184;2024-01-16T07:22:45;-0.50;99.90
53053;DHT22;38934;52.690;6.184;2024-01-16T07:25:11;-0.40;99.90
53053;DHT22;38934;52.690;6.184;2024-01-16T07:27:37;-0.40;99.90
53053;DHT22;38934;52.690;6.184;2024-01-16T07:30:06;0.60;99.90
53053;DHT22;38934;52.690;6.184;2024-01-16T07:32:32;-0.40;99.90
53053;DHT22;38934;52.690;6.184;2024-01-16T07:34:58;-0.30;99.90
53053;DHT22;38934;52.690;6.184;2024-01-16T07:37:24;-0.30;99.90
53053;DHT22;38934;52.690;6.184;2024-01-16T07:39:50;-0.30;99.90
53053;DHT22;38934;52.690;6.184;2024-01-16T07:42:15;-0.20;99.90
53053;DHT22;38934;52.690;6.184;2024-01-16T07:44:41;-0.20;99.90
53053;DHT22;38934;52.690;6.184;2024-01-16T07:47:07;-0.20;99.90
53053;DHT22;38934;52.690;6.184;2024-01-16T07:49:33;-0.10;99.90
53053;DHT22;38934;52.690;6.184;2024-01-16T07:51:59;-0.10;99.90
53053;DHT22;38934;52.690;6.184;2024-01-16T07:54:25;-0.10;99.90
53053;DHT22;38934;52.690;6.184;2024-01-16T07:56:51;0.00;99.90
53053;DHT22;38934;52.690;6.184;2024-01-16T07:59:17;0.00;99.90
53053;DHT22;38934;52.690;6.184;2024-01-16T08:01:43;0.00;99.90
53053;DHT22;38934;52.690;6.184;2024-01-16T08:04:09;0.00;99.90
53053;DHT22;38934;52.690;6.184;2024-01-16T08:06:35;0.10;99.90
53053;DHT22;38934;52.690;6.184;2024-01-16T08:09:00;0.10;99.90
53053;DHT22;38934;52.690;6.184;2024-01-16T08:11:26;0.70;99.90
53053;DHT22;38934;52.690;6.184;2024-01-16T08:13:52;0.10;99.90
53053;DHT22;38934;52.690;6.184;2024-01-16T08:16:17;0.10;99.90
53053;DHT22;38934;52.690;6.184;2024-01-16T08:18:43;0.00;99.90
53053;DHT22;38934;52.690;6.184;2024-01-16T08:21:08;0.00;99.90
53053;DHT22;38934;52.690;6.184;2024-01-16T08:23:34;0.00;99.90
53053;DHT22;38934;52.690;6.184;2024-01-16T08:26:00;0.00;99.90
53053;DHT22;38934;52.690;6.184;2024-01-16T08:28:26;0.10;99.90
53053;DHT22;38934;52.690;6.184;2024-01-16T08:30:52;0.10;99.90
53053;DHT22;38934;52.690;6.184;2024-01-16T08:33:18;0.10;99.90
53053;DHT22;38934;52.690;6.184;2024-01-16T08:35:44;0.10;99.90
53053;DHT22;38934;52.690;6.184;2024-01-16T08:38:10;0.10;99.90
53053;DHT22;38934;52.690;6.184;2024-01-16T08:40:35;0.10;99.90
53053;DHT22;38934;52.690;6.184;2024-01-16T08:43:01;1.00;99.90
53053;DHT22;38934;52.690;6.184;2024-01-16T08:45:27;0.20;99.90
53053;DHT22;38934;52.690;6.184;2024-01-16T08:47:53;0.20;99.90
53053;DHT22;38934;52.690;6.184;2024-01-16T08:50:18;0.90;99.90
53053;DHT22;38934;52.690;6.184;2024-01-16T08:52:46;0.20;99.90
53053;DHT22;38934;52.690;6.184;2024-01-16T08:55:12;0.20;99.90
53053;DHT22;38934;52.690;6.184;2024-01-16T08:57:38;0.90;99.90
53053;DHT22;38934;52.690;6.184;2024-01-16T09:00:05;0.20;99.90
53053;DHT22;38934;52.690;6.184;2024-01-16T09:02:31;0.20;99.90
53053;DHT22;38934;52.690;6.184;2024-01-16T09:04:57;0.20;99.90
53053;DHT22;38934;52.690;6.184;2024-01-16T09:07:24;1.20;99.90
53053;DHT22;38934;52.690;6.184;2024-01-16T09:09:50;0.30;99.90
53053;DHT22;38934;52.690;6.184;2024-01-16T09:12:16;0.40;99.90
53053;DHT22;38934;52.690;6.184;2024-01-16T09:14:42;0.40;99.90
53053;DHT22;38934;52.690;6.184;2024-01-16T09:17:07;0.50;99.90
53053;DHT22;38934;52.690;6.184;2024-01-16T09:19:33;0.60;99.90
53053;DHT22;38934;52.690;6.184;2024-01-16T09:21:59;0.60;99.90
53053;DHT22;38934;52.690;6.184;2024-01-16T09:24:25;0.60;99.90
53053;DHT22;38934;52.690;6.184;2024-01-16T09:26:50;1.30;99.90
53053;DHT22;38934;52.690;6.184;2024-01-16T09:29:16;0.70;99.90
53053;DHT22;38934;52.690;6.184;2024-01-16T09:31:42;0.80;99.90
53053;DHT22;38934;52.690;6.184;2024-01-16T09:34:08;0.90;99.90
53053;DHT22;38934;52.690;6.184;2024-01-16T09:36:34;1.00;99.90
53053;DHT22;38934;52.690;6.184;2024-01-16T09:39:04;1.00;99.90
53053;DHT22;38934;52.690;6.184;2024-01-16T09:41:34;1.00;99.90
53053;DHT22;38934;52.690;6.184;2024-01-16T09:43:59;1.60;99.90
53053;DHT22;38934;52.690;6.184;2024-01-16T09:46:26;1.10;99.90
53053;DHT22;38934;52.690;6.184;2024-01-16T09:48:55;1.00;99.90
53053;DHT22;38934;52.690;6.184;2024-01-16T09:51:22;1.00;99.90
53053;DHT22;38934;52.690;6.184;2024-01-16T09:53:47;1.10;99.90
53053;DHT22;38934;52.690;6.184;2024-01-16T09:56:15;1.10;99.90
53053;DHT22;38934;52.690;6.184;2024-01-16T09:58:41;1.00;99.90
53053;DHT22;38934;52.690;6.184;2024-01-16T10:01:08;1.00;99.90
53053;DHT22;38934;52.690;6.184;2024-01-16T10:03:35;1.10;99.90
53053;DHT22;38934;52.690;6.184;2024-01-16T10:06:04;1.10;99.90
53053;DHT22;38934;52.690;6.184;2024-01-16T10:08:31;1.10;99.90
53053;DHT22;38934;52.690;6.184;2024-01-16T10:10:58;1.20;99.90
53053;DHT22;38934;52.690;6.184;2024-01-16T10:13:23;1.20;99.90
53053;DHT22;38934;52.690;6.184;2024-01-16T10:15:50;1.20;99.90
53053;DHT22;38934;52.690;6.184;2024-01-16T10:18:26;1.20;99.90
53053;DHT22;38934;52.690;6.184;2024-01-16T10:20:52;1.30;99.90
53053;DHT22;38934;52.690;6.184;2024-01-16T10:23:29;1.30;99.90
53053;DHT22;38934;52.690;6.184;2024-01-16T10:26:13;1.30;99.90
53053;DHT22;38934;52.690;6.184;2024-01-16T10:28:43;1.30;99.90
53053;DHT22;38934;52.690;6.184;2024-01-16T10:31:13;1.30;99.90
53053;DHT22;38934;52.690;6.184;2024-01-16T10:33:42;1.30;99.90
53053;DHT22;38934;52.690;6.184;2024-01-16T10:36:12;1.30;99.90
53053;DHT22;38934;52.690;6.184;2024-01-16T10:38:42;1.40;99.90
53053;DHT22;38934;52.690;6.184;2024-01-16T10:41:14;1.40;99.90
53053;DHT22;38934;52.690;6.184;2024-01-16T10:43:40;2.40;99.90
53053;DHT22;38934;52.690;6.184;2024-01-16T10:46:27;1.40;99.90
53053;DHT22;38934;52.690;6.184;2024-01-16T10:48:59;1.40;99.90
53053;DHT22;38934;52.690;6.184;2024-01-16T10:51:27;1.50;99.90
53053;DHT22;38934;52.690;6.184;2024-01-16T10:53:58;1.50;99.90
53053;DHT22;38934;52.690;6.184;2024-01-16T10:56:29;1.50;99.90
53053;DHT22;38934;52.690;6.184;2024-01-16T10:59:10;1.50;99.90
53053;DHT22;38934;52.690;6.184;2024-01-16T11:01:39;1.50;99.90
53053;DHT22;38934;52.690;6.184;2024-01-16T11:04:07;2.50;99.90
53053;DHT22;38934;52.690;6.184;2024-01-16T11:06:33;1.50;99.90
53053;DHT22;38934;52.690;6.184;2024-01-16T11:09:00;2.00;99.90
53053;DHT22;38934;52.690;6.184;2024-01-16T11:11:27;1.60;99.90
53053;DHT22;38934;52.690;6.184;2024-01-16T11:13:54;2.30;99.90
53053;DHT22;38934;52.690;6.184;2024-01-16T11:16:21;1.50;99.90
53053;DHT22;38934;52.690;6.184;2024-01-16T11:18:48;1.60;99.90
53053;DHT22;38934;52.690;6.184;2024-01-16T11:21:15;2.00;99.90
53053;DHT22;38934;52.690;6.184;2024-01-16T11:23:41;1.70;99.90
53053;DHT22;38934;52.690;6.184;2024-01-16T11:26:28;1.10;99.90
53053;DHT22;38934;52.690;6.184;2024-01-16T11:28:57;2.20;99.90
53053;DHT22;38934;52.690;6.184;2024-01-16T11:31:32;2.30;99.90
53053;DHT22;38934;52.690;6.184;2024-01-16T11:33:58;1.70;99.90
53053;DHT22;38934;52.690;6.184;2024-01-16T11:36:52;1.80;99.90
53053;DHT22;38934;52.690;6.184;2024-01-16T11:39:25;1.60;99.90
53053;DHT22;38934;52.690;6.184;2024-01-16T11:41:55;1.80;99.90
53053;DHT22;38934;52.690;6.184;2024-01-16T11:44:43;2.00;99.90
53053;DHT22;38934;52.690;6.184;2024-01-16T11:47:15;1.60;99.90
53053;DHT22;38934;52.690;6.184;2024-01-16T11:49:41;1.90;99.90
53053;DHT22;38934;52.690;6.184;2024-01-16T11:52:07;2.00;99.90
53053;DHT22;38934;52.690;6.184;2024-01-16T11:54:33;1.60;99.90
53053;DHT22;38934;52.690;6.184;2024-01-16T12:00:01;1.70;99.90
53053;DHT22;38934;52.690;6.184;2024-01-16T12:05:11;1.80;99.90
53053;DHT22;38934;52.690;6.184;2024-01-16T12:07:48;2.00;99.90
53053;DHT22;38934;52.690;6.184;2024-01-16T12:10:18;1.90;99.90
53053;DHT22;38934;52.690;6.184;2024-01-16T12:12:45;1.90;99.90
53053;DHT22;38934;52.690;6.184;2024-01-16T12:15:19;2.40;99.90
53053;DHT22;38934;52.690;6.184;2024-01-16T12:17:59;2.00;99.90
53053;DHT22;38934;52.690;6.184;2024-01-16T12:20:33;1.80;99.90
53053;DHT22;38934;52.690;6.184;2024-01-16T12:23:03;1.80;99.90
53053;DHT22;38934;52.690;6.184;2024-01-16T12:25:34;1.90;99.90
53053;DHT22;38934;52.690;6.184;2024-01-16T12:28:07;1.90;99.90
53053;DHT22;38934;52.690;6.184;2024-01-16T12:30:36;2.50;99.90
53053;DHT22;38934;52.690;6.184;2024-01-16T12:33:10;2.00;99.90
53053;DHT22;38934;52.690;6.184;2024-01-16T12:35:37;2.00;99.90
53053;DHT22;38934;52.690;6.184;2024-01-16T12:38:04;2.00;99.90
53053;DHT22;38934;52.690;6.184;2024-01-16T12:40:39;2.00;99.90
53053;DHT22;38934;52.690;6.184;2024-01-16T12:43:08;2.80;99.90
53053;DHT22;38934;52.690;6.184;2024-01-16T12:45:35;2.80;99.90
53053;DHT22;38934;52.690;6.184;2024-01-16T12:48:01;2.10;99.90
53053;DHT22;38934;52.690;6.184;2024-01-16T12:50:30;2.10;99.90
53053;DHT22;38934;52.690;6.184;2024-01-16T12:53:09;2.20;99.90
53053;DHT22;38934;52.690;6.184;2024-01-16T12:55:38;2.40;99.90
53053;DHT22;38934;52.690;6.184;2024-01-16T12:58:20;2.20;99.90
53053;DHT22;38934;52.690;6.184;2024-01-16T13:00:50;2.10;99.90
53053;DHT22;38934;52.690;6.184;2024-01-16T13:03:21;2.10;99.90
53053;DHT22;38934;52.690;6.184;2024-01-16T13:05:59;2.00;99.90
53053;DHT22;38934;52.690;6.184;2024-01-16T13:08:26;1.90;99.90
53053;DHT22;38934;52.690;6.184;2024-01-16T13:11:03;2.20;99.90
53053;DHT22;38934;52.690;6.184;2024-01-16T13:13:29;1.70;99.90
53053;DHT22;38934;52.690;6.184;2024-01-16T13:15:56;1.70;99.90
53053;DHT22;38934;52.690;6.184;2024-01-16T13:18:27;2.00;99.90
53053;DHT22;38934;52.690;6.184;2024-01-16T13:20:55;1.70;99.90
53053;DHT22;38934;52.690;6.184;2024-01-16T13:23:21;2.10;99.90
53053;DHT22;38934;52.690;6.184;2024-01-16T13:25:48;1.90;99.90
53053;DHT22;38934;52.690;6.184;2024-01-16T13:28:15;2.00;99.90
53053;DHT22;38934;52.690;6.184;2024-01-16T13:30:42;2.00;99.90
53053;DHT22;38934;52.690;6.184;2024-01-16T13:33:08;1.90;99.90
53053;DHT22;38934;52.690;6.184;2024-01-16T13:35:35;1.90;99.90
53053;DHT22;38934;52.690;6.184;2024-01-16T13:38:02;1.80;99.90
53053;DHT22;38934;52.690;6.184;2024-01-16T13:40:29;1.70;99.90
53053;DHT22;38934;52.690;6.184;2024-01-16T13:42:55;2.20;99.90
53053;DHT22;38934;52.690;6.184;2024-01-16T13:45:22;1.60;99.90
53053;DHT22;38934;52.690;6.184;2024-01-16T13:47:48;2.00;99.90
53053;DHT22;38934;52.690;6.184;2024-01-16T13:50:14;1.50;99.90
53053;DHT22;38934;52.690;6.184;2024-01-16T13:52:40;2.00;99.90
53053;DHT22;38934;52.690;6.184;2024-01-16T13:55:06;2.00;99.90
53053;DHT22;38934;52.690;6.184;2024-01-16T13:57:33;1.50;99.90
53053;DHT22;38934;52.690;6.184;2024-01-16T14:00:06;1.80;99.90
53053;DHT22;38934;52.690;6.184;2024-01-16T14:02:33;1.60;99.90
53053;DHT22;38934;52.690;6.184;2024-01-16T14:05:03;1.70;99.90
53053;DHT22;38934;52.690;6.184;2024-01-16T14:07:31;1.80;99.90
53053;DHT22;38934;52.690;6.184;2024-01-16T14:09:57;2.70;99.90
53053;DHT22;38934;52.690;6.184;2024-01-16T14:12:23;2.00;99.90
53053;DHT22;38934;52.690;6.184;2024-01-16T14:14:50;2.10;99.90
53053;DHT22;38934;52.690;6.184;2024-01-16T14:17:16;2.00;99.90
53053;DHT22;38934;52.690;6.184;2024-01-16T14:19:42;2.70;99.90
53053;DHT22;38934;52.690;6.184;2024-01-16T14:22:08;1.90;99.90
53053;DHT22;38934;52.690;6.184;2024-01-16T14:24:34;2.20;99.90
53053;DHT22;38934;52.690;6.184;2024-01-16T14:27:00;1.90;99.90
53053;DHT22;38934;52.690;6.184;2024-01-16T14:29:25;1.80;99.90
53053;DHT22;38934;52.690;6.184;2024-01-16T14:31:54;1.80;99.90
53053;DHT22;38934;52.690;6.184;2024-01-16T14:34:21;1.70;99.90
53053;DHT22;38934;52.690;6.184;2024-01-16T14:36:47;2.10;99.90
53053;DHT22;38934;52.690;6.184;2024-01-16T14:39:13;1.90;99.90
53053;DHT22;38934;52.690;6.184;2024-01-16T14:41:39;1.80;99.90
53053;DHT22;38934;52.690;6.184;2024-01-16T14:44:08;1.70;99.90
53053;DHT22;38934;52.690;6.184;2024-01-16T14:46:35;1.70;99.90
53053;DHT22;38934;52.690;6.184;2024-01-16T14:49:01;2.20;99.90
53053;DHT22;38934;52.690;6.184;2024-01-16T14:51:27;1.70;99.90
53053;DHT22;38934;52.690;6.184;2024-01-16T14:53:53;1.70;99.90
53053;DHT22;38934;52.690;6.184;2024-01-16T14:56:19;1.80;99.90
53053;DHT22;38934;52.690;6.184;2024-01-16T14:58:45;2.00;99.90
53053;DHT22;38934;52.690;6.184;2024-01-16T15:01:12;1.60;99.90
53053;DHT22;38934;52.690;6.184;2024-01-16T15:03:38;1.60;99.90
53053;DHT22;38934;52.690;6.184;2024-01-16T15:06:04;2.30;99.90
53053;DHT22;38934;52.690;6.184;2024-01-16T15:08:36;1.60;99.90
53053;DHT22;38934;52.690;6.184;2024-01-16T15:11:01;1.60;99.90
53053;DHT22;38934;52.690;6.184;2024-01-16T15:13:27;1.60;99.90
53053;DHT22;38934;52.690;6.184;2024-01-16T15:15:53;1.60;99.90
53053;DHT22;38934;52.690;6.184;2024-01-16T15:18:22;2.00;99.90
53053;DHT22;38934;52.690;6.184;2024-01-16T15:20:47;1.60;99.90
53053;DHT22;38934;52.690;6.184;2024-01-16T15:23:13;2.40;99.90
53053;DHT22;38934;52.690;6.184;2024-01-16T15:25:39;1.60;99.90
53053;DHT22;38934;52.690;6.184;2024-01-16T15:28:05;2.20;99.90
53053;DHT22;38934;52.690;6.184;2024-01-16T15:30:31;1.50;99.90
53053;DHT22;38934;52.690;6.184;2024-01-16T15:33:04;1.40;99.90
53053;DHT22;38934;52.690;6.184;2024-01-16T15:35:31;1.30;99.90
53053;DHT22;38934;52.690;6.184;2024-01-16T15:37:57;2.30;99.90
53053;DHT22;38934;52.690;6.184;2024-01-16T15:40:23;1.20;99.90
53053;DHT22;38934;52.690;6.184;2024-01-16T15:42:49;1.70;99.90
53053;DHT22;38934;52.690;6.184;2024-01-16T15:45:15;2.20;99.90